sensor_id;sensor_type;location;lat;lon;timestamp;temperature;humidity
24402;DHT22;12539;48.808;11.292;2022-12-18T00:01:52;-2.60;99.90
24402;DHT22;12539;48.808;11.292;2022-12-18T00:04:23;-2.70;99.90
24402;DHT22;12539;48.808;11.292;2022-12-18T00:06:49;-2.70;99.90
24402;DHT22;12539;48.808;11.292;2022-12-18T00:09:15;-2.70;99.90
24402;DHT22;12539;48.808;11.292;2022-12-18T00:11:41;-2.70;99.90
24402;DHT22;12539;48.808;11.292;2022-12-18T00:14:09;-2.60;99.90
24402;DHT22;12539;48.808;11.292;2022-12-18T00:16:36;-2.40;99.90
24402;DHT22;12539;48.808;11.292;2022-12-18T00:19:03;-2.20;99.90
24402;DHT22;12539;48.808;11.292;2022-12-18T00:21:32;-1.70;99.90
24402;DHT22;12539;48.808;11.292;2022-12-18T00:23:59;-1.30;99.90
24402;DHT22;12539;48.808;11.292;2022-12-18T00:26:27;-0.90;99.90
24402;DHT22;12539;48.808;11.292;2022-12-18T00:28:54;-0.70;99.90
24402;DHT22;12539;48.808;11.292;2022-12-18T00:31:22;-0.70;99.90
24402;DHT22;12539;48.808;11.292;2022-12-18T00:33:49;-0.80;99.90
24402;DHT22;12539;48.808;11.292;2022-12-18T00:36:20;-0.80;99.90
24402;DHT22;12539;48.808;11.292;2022-12-18T00:38:46;-1.00;99.90
24402;DHT22;12539;48.808;11.292;2022-12-18T00:41:14;-1.20;99.90
24402;DHT22;12539;48.808;11.292;2022-12-18T00:44:00;-1.30;99.90
24402;DHT22;12539;48.808;11.292;2022-12-18T00:46:27;-1.50;99.90
24402;DHT22;12539;48.808;11.292;2022-12-18T00:48:53;-1.60;99.90
24402;DHT22;12539;48.808;11.292;2022-12-18T00:51:24;-1.70;99.90
24402;DHT22;12539;48.808;11.292;2022-12-18T00:53:50;-1.80;99.90
24402;DHT22;12539;48.808;11.292;2022-12-18T00:56:15;-1.90;99.90
24402;DHT22;12539;48.808;11.292;2022-12-18T00:58:41;-1.80;99.90
24402;DHT22;12539;48.808;11.292;2022-12-18T01:01:07;-1.80;99.90
24402;DHT22;12539;48.808;11.292;2022-12-18T01:03:33;-1.70;99.90
24402;DHT22;12539;48.808;11.292;2022-12-18T01:05:59;-1.80;99.90
24402;DHT22;12539;48.808;11.292;2022-12-18T01:08:25;-1.80;99.90
24402;DHT22;12539;48.808;11.292;2022-12-18T01:10:51;-1.80;99.90
24402;DHT22;12539;48.808;11.292;2022-12-18T01:13:16;-1.70;99.90
24402;DHT22;12539;48.808;11.292;2022-12-18T01:15:49;-1.60;99.90
24402;DHT22;12539;48.808;11.292;2022-12-18T01:18:14;-1.50;99.90
24402;DHT22;12539;48.808;11.292;2022-12-18T01:20:40;-1.50;99.90
24402;DHT22;12539;48.808;11.292;2022-12-18T01:23:06;-1.70;99.90
24402;DHT22;12539;48.808;11.292;2022-12-18T01:25:31;-1.60;99.90
24402;DHT22;12539;48.808;11.292;2022-12-18T01:27:57;-1.50;99.90
24402;DHT22;12539;48.808;11.292;2022-12-18T01:30:23;-1.30;99.90
24402;DHT22;12539;48.808;11.292;2022-12-18T01:32:49;-0.80;99.90
24402;DHT22;12539;48.808;11.292;2022-12-18T01:35:14;-0.20;99.90
24402;DHT22;12539;48.808;11.292;2022-12-18T01:37:40;0.10;99.90
24402;DHT22;12539;48.808;11.292;2022-12-18T01:40:06;0.30;99.90
24402;DHT22;12539;48.808;11.292;2022-12-18T01:42:32;0.20;99.90
24402;DHT22;12539;48.808;11.292;2022-12-18T01:47:43;0.20;99.90
24402;DHT22;12539;48.808;11.292;2022-12-18T01:50:35;0.10;99.90
24402;DHT22;12539;48.808;11.292;2022-12-18T01:55:38;-0.30;99.90
24402;DHT22;12539;48.808;11.292;2022-12-18T01:58:06;-0.40;99.90
24402;DHT22;12539;48.808;11.292;2022-12-18T02:00:32;-0.40;99.90
24402;DHT22;12539;48.808;11.292;2022-12-18T02:02:57;-0.50;99.90
24402;DHT22;12539;48.808;11.292;2022-12-18T02:08:56;-1.00;99.90
24402;DHT22;12539;48.808;11.292;2022-12-18T02:11:40;-1.10;99.90
24402;DHT22;12539;48.808;11.292;2022-12-18T02:24:45;-1.50;99.90
24402;DHT22;12539;48.808;11.292;2022-12-18T02:27:17;-1.40;99.90
24402;DHT22;12539;48.808;11.292;2022-12-18T02:29:54;-1.40;99.90
24402;DHT22;12539;48.808;11.292;2022-12-18T02:32:36;-1.30;99.90
24402;DHT22;12539;48.808;11.292;2022-12-18T02:35:05;-1.40;99.90
24402;DHT22;12539;48.808;11.292;2022-12-18T02:37:33;-1.50;99.90
24402;DHT22;12539;48.808;11.292;2022-12-18T02:40:00;-1.50;99.90
24402;DHT22;12539;48.808;11.292;2022-12-18T02:42:28;-1.50;99.90
24402;DHT22;12539;48.808;11.292;2022-12-18T02:44:56;-1.60;99.90
24402;DHT22;12539;48.808;11.292;2022-12-18T02:47:24;-1.60;99.90
24402;DHT22;12539;48.808;11.292;2022-12-18T02:50:08;-1.40;99.90
24402;DHT22;12539;48.808;11.292;2022-12-18T02:58:13;-0.40;99.90
24402;DHT22;12539;48.808;11.292;2022-12-18T03:00:48;-0.30;99.90
24402;DHT22;12539;48.808;11.292;2022-12-18T03:03:29;-0.40;99.90
24402;DHT22;12539;48.808;11.292;2022-12-18T03:06:12;-0.50;99.90
24402;DHT22;12539;48.808;11.292;2022-12-18T03:08:43;-0.50;99.90
24402;DHT22;12539;48.808;11.292;2022-12-18T03:11:12;-0.60;99.90
24402;DHT22;12539;48.808;11.292;2022-12-18T03:13:52;-0.80;99.90
24402;DHT22;12539;48.808;11.292;2022-12-18T03:16:27;-0.90;99.90
24402;DHT22;12539;48.808;11.292;2022-12-18T03:19:13;-1.00;99.90
24402;DHT22;12539;48.808;11.292;2022-12-18T03:21:52;-0.90;99.90
24402;DHT22;12539;48.808;11.292;2022-12-18T03:24:20;-0.80;99.90
24402;DHT22;12539;48.808;11.292;2022-12-18T03:26:49;-0.70;99.90
24402;DHT22;12539;48.808;11.292;2022-12-18T03:29:22;-0.60;99.90
24402;DHT22;12539;48.808;11.292;2022-12-18T03:31:54;-0.50;99.90
24402;DHT22;12539;48.808;11.292;2022-12-18T03:34:32;-0.60;99.90
24402;DHT22;12539;48.808;11.292;2022-12-18T03:37:01;-0.70;99.90
24402;DHT22;12539;48.808;11.292;2022-12-18T03:39:27;-0.80;99.90
24402;DHT22;12539;48.808;11.292;2022-12-18T03:42:10;-0.70;99.90
24402;DHT22;12539;48.808;11.292;2022-12-18T03:44:53;-0.70;99.90
24402;DHT22;12539;48.808;11.292;2022-12-18T03:47:36;-0.70;99.90
24402;DHT22;12539;48.808;11.292;2022-12-18T03:50:22;-0.80;99.90
24402;DHT22;12539;48.808;11.292;2022-12-18T03:52:53;-0.90;99.90
24402;DHT22;12539;48.808;11.292;2022-12-18T03:55:21;-1.00;99.90
24402;DHT22;12539;48.808;11.292;2022-12-18T03:57:48;-1.00;99.90
24402;DHT22;12539;48.808;11.292;2022-12-18T04:00:17;-1.10;99.90
24402;DHT22;12539;48.808;11.292;2022-12-18T04:02:47;-1.10;99.90
24402;DHT22;12539;48.808;11.292;2022-12-18T04:05:18;-1.10;99.90
24402;DHT22;12539;48.808;11.292;2022-12-18T04:07:45;-1.10;99.90
24402;DHT22;12539;48.808;11.292;2022-12-18T04:10:11;-1.00;99.90
24402;DHT22;12539;48.808;11.292;2022-12-18T04:12:38;-0.90;99.90
24402;DHT22;12539;48.808;11.292;2022-12-18T04:15:04;-0.80;99.90
24402;DHT22;12539;48.808;11.292;2022-12-18T04:17:30;-0.80;99.90
24402;DHT22;12539;48.808;11.292;2022-12-18T04:19:56;-0.80;99.90
24402;DHT22;12539;48.808;11.292;2022-12-18T04:22:21;-0.70;99.90
24402;DHT22;12539;48.808;11.292;2022-12-18T04:24:47;-0.70;99.90
24402;DHT22;12539;48.808;11.292;2022-12-18T04:27:13;-0.50;99.90
24402;DHT22;12539;48.808;11.292;2022-12-18T04:29:39;-0.20;99.90
24402;DHT22;12539;48.808;11.292;2022-12-18T04:32:05;0.20;99.90
24402;DHT22;12539;48.808;11.292;2022-12-18T04:34:31;0.40;99.90
24402;DHT22;12539;48.808;11.292;2022-12-18T04:36:56;0.40;99.90
24402;DHT22;12539;48.808;11.292;2022-12-18T04:39:22;0.60;99.90
24402;DHT22;12539;48.808;11.292;2022-12-18T04:41:48;0.50;99.90
24402;DHT22;12539;48.808;11.292;2022-12-18T04:44:14;0.40;99.90
24402;DHT22;12539;48.808;11.292;2022-12-18T04:46:39;0.30;99.90
24402;DHT22;12539;48.808;11.292;2022-12-18T04:49:05;0.30;99.90
24402;DHT22;12539;48.808;11.292;2022-12-18T04:51:31;0.10;99.90
24402;DHT22;12539;48.808;11.292;2022-12-18T04:53:56;0.00;99.90
24402;DHT22;12539;48.808;11.292;2022-12-18T04:56:22;-0.20;99.90
24402;DHT22;12539;48.808;11.292;2022-12-18T04:58:48;-0.20;99.90
24402;DHT22;12539;48.808;11.292;2022-12-18T05:01:15;-0.20;99.90
24402;DHT22;12539;48.808;11.292;2022-12-18T05:03:42;-0.30;99.90
24402;DHT22;12539;48.808;11.292;2022-12-18T05:06:08;-0.20;99.90
24402;DHT22;12539;48.808;11.292;2022-12-18T05:08:34;-0.40;99.90
24402;DHT22;12539;48.808;11.292;2022-12-18T05:11:05;-0.50;99.90
24402;DHT22;12539;48.808;11.292;2022-12-18T05:13:32;-0.50;99.90
24402;DHT22;12539;48.808;11.292;2022-12-18T05:15:57;-0.60;99.90
24402;DHT22;12539;48.808;11.292;2022-12-18T05:18:24;-0.70;99.90
24402;DHT22;12539;48.808;11.292;2022-12-18T05:20:53;-0.60;99.90
24402;DHT22;12539;48.808;11.292;2022-12-18T05:23:20;-0.60;99.90
24402;DHT22;12539;48.808;11.292;2022-12-18T05:26:14;-0.60;99.90
24402;DHT22;12539;48.808;11.292;2022-12-18T05:28:40;-0.60;99.90
24402;DHT22;12539;48.808;11.292;2022-12-18T05:31:06;-0.60;99.90
24402;DHT22;12539;48.808;11.292;2022-12-18T05:33:34;-0.70;99.90
24402;DHT22;12539;48.808;11.292;2022-12-18T05:36:05;-0.60;99.90
24402;DHT22;12539;48.808;11.292;2022-12-18T05:38:33;-0.60;99.90
24402;DHT22;12539;48.808;11.292;2022-12-18T05:40:59;-0.50;99.90
24402;DHT22;12539;48.808;11.292;2022-12-18T05:43:25;-0.40;99.90
24402;DHT22;12539;48.808;11.292;2022-12-18T05:45:51;-0.30;99.90
24402;DHT22;12539;48.808;11.292;2022-12-18T05:48:18;-0.20;99.90
24402;DHT22;12539;48.808;11.292;2022-12-18T05:50:45;-0.20;99.90
24402;DHT22;12539;48.808;11.292;2022-12-18T05:53:12;-0.10;99.90
24402;DHT22;12539;48.808;11.292;2022-12-18T05:55:40;-0.10;99.90
24402;DHT22;12539;48.808;11.292;2022-12-18T05:58:07;-0.20;99.90
24402;DHT22;12539;48.808;11.292;2022-12-18T06:00:36;-0.30;99.90
24402;DHT22;12539;48.808;11.292;2022-12-18T06:03:05;-0.40;99.90
24402;DHT22;12539;48.808;11.292;2022-12-18T06:05:38;-0.50;99.90
24402;DHT22;12539;48.808;11.292;2022-12-18T06:08:04;-0.50;99.90
24402;DHT22;12539;48.808;11.292;2022-12-18T06:10:30;-0.40;99.90
24402;DHT22;12539;48.808;11.292;2022-12-18T06:12:56;-0.40;99.90
24402;DHT22;12539;48.808;11.292;2022-12-18T06:15:22;-0.30;99.90
24402;DHT22;12539;48.808;11.292;2022-12-18T06:17:47;-0.30;99.90
24402;DHT22;12539;48.808;11.292;2022-12-18T06:20:13;-0.30;99.90
24402;DHT22;12539;48.808;11.292;2022-12-18T06:22:39;-0.30;99.90
24402;DHT22;12539;48.808;11.292;2022-12-18T06:25:05;-0.20;99.90
24402;DHT22;12539;48.808;11.292;2022-12-18T06:27:31;-0.20;99.90
24402;DHT22;12539;48.808;11.292;2022-12-18T06:29:59;-0.10;99.90
24402;DHT22;12539;48.808;11.292;2022-12-18T06:32:25;-0.10;99.90
24402;DHT22;12539;48.808;11.292;2022-12-18T06:34:51;0.00;99.90
24402;DHT22;12539;48.808;11.292;2022-12-18T06:37:16;0.30;99.90
24402;DHT22;12539;48.808;11.292;2022-12-18T06:39:42;0.30;99.90
24402;DHT22;12539;48.808;11.292;2022-12-18T06:42:08;0.20;99.90
24402;DHT22;12539;48.808;11.292;2022-12-18T06:44:34;0.10;99.90
24402;DHT22;12539;48.808;11.292;2022-12-18T06:46:59;0.00;99.90
24402;DHT22;12539;48.808;11.292;2022-12-18T06:49:25;-0.20;99.90
24402;DHT22;12539;48.808;11.292;2022-12-18T06:51:51;-0.30;99.90
24402;DHT22;12539;48.808;11.292;2022-12-18T06:54:17;-0.30;99.90
24402;DHT22;12539;48.808;11.292;2022-12-18T06:56:45;-0.30;99.90
24402;DHT22;12539;48.808;11.292;2022-12-18T06:59:10;-0.30;99.90
24402;DHT22;12539;48.808;11.292;2022-12-18T07:01:37;-0.20;99.90
24402;DHT22;12539;48.808;11.292;2022-12-18T07:04:05;-0.20;99.90
24402;DHT22;12539;48.808;11.292;2022-12-18T07:06:31;-0.20;99.90
24402;DHT22;12539;48.808;11.292;2022-12-18T07:08:56;-0.30;99.90
24402;DHT22;12539;48.808;11.292;2022-12-18T07:11:22;-0.30;99.90
24402;DHT22;12539;48.808;11.292;2022-12-18T07:13:48;-0.30;99.90
24402;DHT22;12539;48.808;11.292;2022-12-18T07:16:16;-0.30;99.90
24402;DHT22;12539;48.808;11.292;2022-12-18T07:18:42;-0.20;99.90
24402;DHT22;12539;48.808;11.292;2022-12-18T07:21:12;-0.30;99.90
24402;DHT22;12539;48.808;11.292;2022-12-18T07:23:38;-0.30;99.90
24402;DHT22;12539;48.808;11.292;2022-12-18T07:26:08;-0.40;99.90
24402;DHT22;12539;48.808;11.292;2022-12-18T07:28:35;-0.50;99.90
24402;DHT22;12539;48.808;11.292;2022-12-18T07:31:21;-0.60;99.90
24402;DHT22;12539;48.808;11.292;2022-12-18T07:33:47;-0.70;99.90
24402;DHT22;12539;48.808;11.292;2022-12-18T07:36:13;-0.80;99.90
24402;DHT22;12539;48.808;11.292;2022-12-18T07:38:39;-0.70;99.90
24402;DHT22;12539;48.808;11.292;2022-12-18T07:41:07;-0.60;99.90
24402;DHT22;12539;48.808;11.292;2022-12-18T07:43:37;-0.70;99.90
24402;DHT22;12539;48.808;11.292;2022-12-18T07:46:03;-0.70;99.90
24402;DHT22;12539;48.808;11.292;2022-12-18T07:48:29;-0.60;99.90
24402;DHT22;12539;48.808;11.292;2022-12-18T07:51:03;-0.50;99.90
24402;DHT22;12539;48.808;11.292;2022-12-18T07:53:30;-0.50;99.90
24402;DHT22;12539;48.808;11.292;2022-12-18T07:55:57;-0.40;99.90
24402;DHT22;12539;48.808;11.292;2022-12-18T07:58:26;-0.40;99.90
24402;DHT22;12539;48.808;11.292;2022-12-18T08:01:17;-0.30;99.90
24402;DHT22;12539;48.808;11.292;2022-12-18T08:03:43;-0.30;99.90
24402;DHT22;12539;48.808;11.292;2022-12-18T08:06:09;-0.20;99.90
24402;DHT22;12539;48.808;11.292;2022-12-18T08:08:35;-0.20;99.90
24402;DHT22;12539;48.808;11.292;2022-12-18T08:11:01;-0.10;99.90
24402;DHT22;12539;48.808;11.292;2022-12-18T08:13:27;-0.10;99.90
24402;DHT22;12539;48.808;11.292;2022-12-18T08:18:23;-0.10;99.90
24402;DHT22;12539;48.808;11.292;2022-12-18T08:20:49;-0.10;99.90
24402;DHT22;12539;48.808;11.292;2022-12-18T08:23:18;-0.10;99.90
24402;DHT22;12539;48.808;11.292;2022-12-18T08:25:44;-0.10;99.90
24402;DHT22;12539;48.808;11.292;2022-12-18T08:28:10;0.00;99.90
24402;DHT22;12539;48.808;11.292;2022-12-18T08:30:36;0.00;99.90
24402;DHT22;12539;48.808;11.292;2022-12-18T08:33:02;0.00;99.90
24402;DHT22;12539;48.808;11.292;2022-12-18T08:35:27;0.10;99.90
24402;DHT22;12539;48.808;11.292;2022-12-18T08:37:53;0.10;99.90
24402;DHT22;12539;48.808;11.292;2022-12-18T08:40:19;0.10;99.90
24402;DHT22;12539;48.808;11.292;2022-12-18T08:42:44;0.30;99.90
24402;DHT22;12539;48.808;11.292;2022-12-18T08:45:28;0.30;99.90
24402;DHT22;12539;48.808;11.292;2022-12-18T08:47:54;0.30;99.90
24402;DHT22;12539;48.808;11.292;2022-12-18T08:50:20;0.20;99.90
24402;DHT22;12539;48.808;11.292;2022-12-18T08:52:45;0.20;99.90
24402;DHT22;12539;48.808;11.292;2022-12-18T08:55:11;0.10;99.90
24402;DHT22;12539;48.808;11.292;2022-12-18T08:57:37;0.20;99.90
24402;DHT22;12539;48.808;11.292;2022-12-18T09:00:04;0.20;99.90
24402;DHT22;12539;48.808;11.292;2022-12-18T09:02:29;0.20;99.90
24402;DHT22;12539;48.808;11.292;2022-12-18T09:04:55;0.10;99.90
24402;DHT22;12539;48.808;11.292;2022-12-18T09:07:21;0.20;99.90
24402;DHT22;12539;48.808;11.292;2022-12-18T09:09:46;0.20;99.90
24402;DHT22;12539;48.808;11.292;2022-12-18T09:12:12;0.20;99.90
24402;DHT22;12539;48.808;11.292;2022-12-18T09:14:38;0.30;99.90
24402;DHT22;12539;48.808;11.292;2022-12-18T09:17:03;0.40;99.90
24402;DHT22;12539;48.808;11.292;2022-12-18T09:19:29;0.50;99.90
24402;DHT22;12539;48.808;11.292;2022-12-18T09:21:55;0.50;99.90
24402;DHT22;12539;48.808;11.292;2022-12-18T09:24:24;0.60;99.90
24402;DHT22;12539;48.808;11.292;2022-12-18T09:26:53;0.60;99.90
24402;DHT22;12539;48.808;11.292;2022-12-18T09:29:19;0.60;99.90
24402;DHT22;12539;48.808;11.292;2022-12-18T09:31:45;0.50;99.90
24402;DHT22;12539;48.808;11.292;2022-12-18T09:34:10;0.60;99.90
24402;DHT22;12539;48.808;11.292;2022-12-18T09:36:36;0.70;99.90
24402;DHT22;12539;48.808;11.292;2022-12-18T09:39:02;0.60;99.90
24402;DHT22;12539;48.808;11.292;2022-12-18T09:41:38;0.60;99.90
24402;DHT22;12539;48.808;11.292;2022-12-18T09:46:48;0.70;99.90
24402;DHT22;12539;48.808;11.292;2022-12-18T09:49:18;0.70;99.90
24402;DHT22;12539;48.808;11.292;2022-12-18T09:54:34;0.80;99.90
24402;DHT22;12539;48.808;11.292;2022-12-18T09:57:01;0.90;99.90
24402;DHT22;12539;48.808;11.292;2022-12-18T09:59:40;0.90;99.90
24402;DHT22;12539;48.808;11.292;2022-12-18T10:02:22;1.00;99.90
24402;DHT22;12539;48.808;11.292;2022-12-18T10:05:07;1.00;99.90
24402;DHT22;12539;48.808;11.292;2022-12-18T10:10:06;1.10;99.90
24402;DHT22;12539;48.808;11.292;2022-12-18T10:15:24;1.30;99.90
24402;DHT22;12539;48.808;11.292;2022-12-18T10:18:22;1.30;99.90
24402;DHT22;12539;48.808;11.292;2022-12-18T10:20:53;1.10;99.90
24402;DHT22;12539;48.808;11.292;2022-12-18T10:26:08;0.90;99.90
24402;DHT22;12539;48.808;11.292;2022-12-18T10:28:39;0.80;99.90
24402;DHT22;12539;48.808;11.292;2022-12-18T10:31:16;0.80;99.90
24402;DHT22;12539;48.808;11.292;2022-12-18T10:33:42;0.90;99.90
24402;DHT22;12539;48.808;11.292;2022-12-18T10:36:09;0.90;99.90
24402;DHT22;12539;48.808;11.292;2022-12-18T10:38:34;1.00;99.90
24402;DHT22;12539;48.808;11.292;2022-12-18T10:43:42;1.00;99.90
24402;DHT22;12539;48.808;11.292;2022-12-18T10:51:06;1.20;99.90
24402;DHT22;12539;48.808;11.292;2022-12-18T10:53:35;1.30;99.90
24402;DHT22;12539;48.808;11.292;2022-12-18T10:56:03;1.50;99.90
24402;DHT22;12539;48.808;11.292;2022-12-18T10:58:35;1.60;99.90
24402;DHT22;12539;48.808;11.292;2022-12-18T11:01:15;1.70;99.90
24402;DHT22;12539;48.808;11.292;2022-12-18T11:08:35;1.90;99.90
24402;DHT22;12539;48.808;11.292;2022-12-18T11:11:01;1.90;99.90
24402;DHT22;12539;48.808;11.292;2022-12-18T11:13:29;1.90;99.90
24402;DHT22;12539;48.808;11.292;2022-12-18T11:15:57;1.90;99.90
24402;DHT22;12539;48.808;11.292;2022-12-18T11:18:33;1.90;99.90
24402;DHT22;12539;48.808;11.292;2022-12-18T11:21:11;2.00;99.90
24402;DHT22;12539;48.808;11.292;2022-12-18T11:23:53;2.00;99.90
24402;DHT22;12539;48.808;11.292;2022-12-18T11:26:19;2.20;99.90
24402;DHT22;12539;48.808;11.292;2022-12-18T11:28:53;2.20;99.90
24402;DHT22;12539;48.808;11.292;2022-12-18T11:31:33;2.30;99.90
24402;DHT22;12539;48.808;11.292;2022-12-18T11:34:23;2.30;99.90
24402;DHT22;12539;48.808;11.292;2022-12-18T11:36:52;2.40;98.60
24402;DHT22;12539;48.808;11.292;2022-12-18T11:39:37;2.40;96.90
24402;DHT22;12539;48.808;11.292;2022-12-18T11:44:54;2.30;98.40
24402;DHT22;12539;48.808;11.292;2022-12-18T11:47:38;2.40;99.30
24402;DHT22;12539;48.808;11.292;2022-12-18T11:50:19;2.50;98.10
24402;DHT22;12539;48.808;11.292;2022-12-18T11:52:46;2.50;97.80
24402;DHT22;12539;48.808;11.292;2022-12-18T11:55:37;2.50;96.90
24402;DHT22;12539;48.808;11.292;2022-12-18T11:58:24;2.50;97.10
24402;DHT22;12539;48.808;11.292;2022-12-18T12:01:03;2.40;96.80
24402;DHT22;12539;48.808;11.292;2022-12-18T12:03:56;2.40;96.30
24402;DHT22;12539;48.808;11.292;2022-12-18T12:06:46;2.40;95.80
24402;DHT22;12539;48.808;11.292;2022-12-18T12:09:28;2.40;98.00
24402;DHT22;12539;48.808;11.292;2022-12-18T12:12:30;2.50;96.90
24402;DHT22;12539;48.808;11.292;2022-12-18T12:20:51;2.50;96.40
24402;DHT22;12539;48.808;11.292;2022-12-18T12:26:06;2.40;97.30
24402;DHT22;12539;48.808;11.292;2022-12-18T12:31:11;2.60;97.80
24402;DHT22;12539;48.808;11.292;2022-12-18T12:39:00;2.80;97.00
24402;DHT22;12539;48.808;11.292;2022-12-18T12:41:31;2.80;96.70
24402;DHT22;12539;48.808;11.292;2022-12-18T12:44:22;2.70;96.10
24402;DHT22;12539;48.808;11.292;2022-12-18T12:46:49;2.70;96.60
24402;DHT22;12539;48.808;11.292;2022-12-18T12:49:20;2.70;95.50
24402;DHT22;12539;48.808;11.292;2022-12-18T12:51:53;2.60;94.70
24402;DHT22;12539;48.808;11.292;2022-12-18T12:54:24;2.50;95.00
24402;DHT22;12539;48.808;11.292;2022-12-18T12:57:00;2.40;95.10
24402;DHT22;12539;48.808;11.292;2022-12-18T13:07:34;2.20;93.90
24402;DHT22;12539;48.808;11.292;2022-12-18T13:12:55;1.90;94.40
24402;DHT22;12539;48.808;11.292;2022-12-18T13:23:37;1.80;95.20
24402;DHT22;12539;48.808;11.292;2022-12-18T13:34:19;1.80;96.40
24402;DHT22;12539;48.808;11.292;2022-12-18T13:36:45;1.80;96.50
24402;DHT22;12539;48.808;11.292;2022-12-18T13:41:41;1.80;96.60
24402;DHT22;12539;48.808;11.292;2022-12-18T13:44:37;1.80;95.90
24402;DHT22;12539;48.808;11.292;2022-12-18T13:47:24;1.70;96.70
24402;DHT22;12539;48.808;11.292;2022-12-18T13:49:50;1.70;96.70
24402;DHT22;12539;48.808;11.292;2022-12-18T13:52:22;1.70;96.20
24402;DHT22;12539;48.808;11.292;2022-12-18T13:54:55;1.70;97.40
24402;DHT22;12539;48.808;11.292;2022-12-18T13:57:32;1.70;97.00
24402;DHT22;12539;48.808;11.292;2022-12-18T13:59:59;1.80;97.40
24402;DHT22;12539;48.808;11.292;2022-12-18T14:02:37;1.80;97.20
24402;DHT22;12539;48.808;11.292;2022-12-18T14:05:04;1.80;97.50
24402;DHT22;12539;48.808;11.292;2022-12-18T14:07:30;1.80;97.50
24402;DHT22;12539;48.808;11.292;2022-12-18T14:09:58;1.80;96.80
24402;DHT22;12539;48.808;11.292;2022-12-18T14:20:24;1.50;97.50
24402;DHT22;12539;48.808;11.292;2022-12-18T14:22:50;1.50;97.30
24402;DHT22;12539;48.808;11.292;2022-12-18T14:25:22;1.40;96.90
24402;DHT22;12539;48.808;11.292;2022-12-18T14:27:52;1.40;97.50
24402;DHT22;12539;48.808;11.292;2022-12-18T14:35:39;1.40;99.00
24402;DHT22;12539;48.808;11.292;2022-12-18T14:40:55;1.60;99.90
24402;DHT22;12539;48.808;11.292;2022-12-18T14:43:21;1.70;99.90
24402;DHT22;12539;48.808;11.292;2022-12-18T14:45:47;1.80;99.90
24402;DHT22;12539;48.808;11.292;2022-12-18T14:48:42;1.80;99.30
24402;DHT22;12539;48.808;11.292;2022-12-18T14:53:47;1.50;99.90
24402;DHT22;12539;48.808;11.292;2022-12-18T14:58:53;1.40;99.30
24402;DHT22;12539;48.808;11.292;2022-12-18T15:03:50;1.20;99.60
24402;DHT22;12539;48.808;11.292;2022-12-18T15:06:36;1.10;99.90
24402;DHT22;12539;48.808;11.292;2022-12-18T15:09:24;1.20;99.90
24402;DHT22;12539;48.808;11.292;2022-12-18T15:11:59;1.10;99.30
24402;DHT22;12539;48.808;11.292;2022-12-18T15:14:39;1.00;99.70
24402;DHT22;12539;48.808;11.292;2022-12-18T15:17:21;0.90;99.50
24402;DHT22;12539;48.808;11.292;2022-12-18T15:19:48;0.90;99.90
24402;DHT22;12539;48.808;11.292;2022-12-18T15:22:30;0.80;99.90
24402;DHT22;12539;48.808;11.292;2022-12-18T15:24:59;0.90;99.90
24402;DHT22;12539;48.808;11.292;2022-12-18T15:27:32;1.00;99.90
24402;DHT22;12539;48.808;11.292;2022-12-18T15:32:39;1.00;99.90
24402;DHT22;12539;48.808;11.292;2022-12-18T15:37:41;1.00;99.90
24402;DHT22;12539;48.808;11.292;2022-12-18T15:40:15;1.00;99.90
24402;DHT22;12539;48.808;11.292;2022-12-18T15:42:41;0.90;99.90
24402;DHT22;12539;48.808;11.292;2022-12-18T15:45:26;0.90;99.90
24402;DHT22;12539;48.808;11.292;2022-12-18T15:47:52;1.00;99.90
24402;DHT22;12539;48.808;11.292;2022-12-18T15:50:18;1.00;99.90
24402;DHT22;12539;48.808;11.292;2022-12-18T15:52:46;1.00;99.90
24402;DHT22;12539;48.808;11.292;2022-12-18T15:55:18;0.90;99.90
24402;DHT22;12539;48.808;11.292;2022-12-18T15:58:07;0.80;99.90
24402;DHT22;12539;48.808;11.292;2022-12-18T16:00:35;0.70;99.90
24402;DHT22;12539;48.808;11.292;2022-12-18T16:03:01;0.80;99.90
24402;DHT22;12539;48.808;11.292;2022-12-18T16:05:28;0.70;99.90
24402;DHT22;12539;48.808;11.292;2022-12-18T16:07:53;0.70;99.90
24402;DHT22;12539;48.808;11.292;2022-12-18T16:10:20;0.80;99.90
24402;DHT22;12539;48.808;11.292;2022-12-18T16:12:46;0.90;99.90
24402;DHT22;12539;48.808;11.292;2022-12-18T16:15:15;1.10;99.90
24402;DHT22;12539;48.808;11.292;2022-12-18T16:17:42;1.10;99.90
24402;DHT22;12539;48.808;11.292;2022-12-18T16:20:16;1.00;99.90
24402;DHT22;12539;48.808;11.292;2022-12-18T16:22:43;0.90;99.80
24402;DHT22;12539;48.808;11.292;2022-12-18T16:25:25;0.80;99.90
24402;DHT22;12539;48.808;11.292;2022-12-18T16:27:52;0.70;99.90
24402;DHT22;12539;48.808;11.292;2022-12-18T16:30:26;0.70;99.90
24402;DHT22;12539;48.808;11.292;2022-12-18T16:32:54;0.60;99.90
24402;DHT22;12539;48.808;11.292;2022-12-18T16:35:20;0.40;99.90
24402;DHT22;12539;48.808;11.292;2022-12-18T16:37:45;0.40;99.90
24402;DHT22;12539;48.808;11.292;2022-12-18T16:40:14;0.40;99.90
24402;DHT22;12539;48.808;11.292;2022-12-18T16:42:42;0.50;99.90
24402;DHT22;12539;48.808;11.292;2022-12-18T16:45:10;0.60;99.90
24402;DHT22;12539;48.808;11.292;2022-12-18T16:47:36;0.60;99.90
24402;DHT22;12539;48.808;11.292;2022-12-18T16:50:03;0.50;99.90
24402;DHT22;12539;48.808;11.292;2022-12-18T16:52:29;0.50;99.90
24402;DHT22;12539;48.808;11.292;2022-12-18T16:54:55;0.40;99.90
24402;DHT22;12539;48.808;11.292;2022-12-18T16:57:21;0.30;99.90
24402;DHT22;12539;48.808;11.292;2022-12-18T16:59:47;0.30;99.90
24402;DHT22;12539;48.808;11.292;2022-12-18T17:02:18;0.30;99.90
24402;DHT22;12539;48.808;11.292;2022-12-18T17:04:44;0.20;99.90
24402;DHT22;12539;48.808;11.292;2022-12-18T17:10:15;0.20;99.90
24402;DHT22;12539;48.808;11.292;2022-12-18T17:12:41;0.10;99.90
24402;DHT22;12539;48.808;11.292;2022-12-18T17:15:07;0.10;99.90
24402;DHT22;12539;48.808;11.292;2022-12-18T17:17:33;0.00;99.90
24402;DHT22;12539;48.808;11.292;2022-12-18T17:20:00;0.10;99.90
24402;DHT22;12539;48.808;11.292;2022-12-18T17:22:26;0.10;99.90
24402;DHT22;12539;48.808;11.292;2022-12-18T17:24:52;0.10;99.90
24402;DHT22;12539;48.808;11.292;2022-12-18T17:27:18;0.10;99.90
24402;DHT22;12539;48.808;11.292;2022-12-18T17:29:44;0.10;99.90
24402;DHT22;12539;48.808;11.292;2022-12-18T17:32:10;0.10;99.90
24402;DHT22;12539;48.808;11.292;2022-12-18T17:34:35;0.20;99.90
24402;DHT22;12539;48.808;11.292;2022-12-18T17:37:02;0.20;99.90
24402;DHT22;12539;48.808;11.292;2022-12-18T17:39:27;0.40;99.90
24402;DHT22;12539;48.808;11.292;2022-12-18T17:41:55;0.70;99.90
24402;DHT22;12539;48.808;11.292;2022-12-18T17:44:21;1.00;99.90
24402;DHT22;12539;48.808;11.292;2022-12-18T17:46:47;1.10;99.90
24402;DHT22;12539;48.808;11.292;2022-12-18T17:49:13;1.00;99.90
24402;DHT22;12539;48.808;11.292;2022-12-18T17:51:38;1.10;99.90
24402;DHT22;12539;48.808;11.292;2022-12-18T17:54:06;1.00;99.90
24402;DHT22;12539;48.808;11.292;2022-12-18T17:56:32;0.80;99.90